createdAt,value
2022-10-18T00:01:20.410Z,72.62
2022-10-18T00:05:20.292Z,72.62
2022-10-18T00:09:19.336Z,72.32
2022-10-18T00:13:18.956Z,71.20
2022-10-18T00:17:20.679Z,70.59
2022-10-18T00:21:22.291Z,69.59
2022-10-18T00:25:22.013Z,68.88
2022-10-18T00:29:21.827Z,69.17
2022-10-18T00:33:23.705Z,68.18
2022-10-18T00:37:23.378Z,68.87
2022-10-18T00:41:23.431Z,68.61
2022-10-18T00:45:25.034Z,68.59
2022-10-18T00:49:30.671Z,69.47
2022-10-18T00:53:30.341Z,69.75
2022-10-18T00:57:29.867Z,68.99
2022-10-18T01:01:29.628Z,68.98
2022-10-18T01:05:31.407Z,69.58
2022-10-18T01:09:38.772Z,69.10
2022-10-18T01:13:49.321Z,69.71
2022-10-18T01:17:58.001Z,69.91
2022-10-18T01:22:06.919Z,69.82
2022-10-18T01:26:26.347Z,70.05
2022-10-18T01:30:49.630Z,69.69
2022-10-18T01:34:53.407Z,70.19
2022-10-18T01:38:57.083Z,70.19
2022-10-18T01:42:57.146Z,70.52
2022-10-18T01:46:59.998Z,70.50
2022-10-18T01:50:59.713Z,70.65
2022-10-18T01:54:59.672Z,71.06
2022-10-18T01:59:10.654Z,72.33
2022-10-18T02:03:18.543Z,72.68
2022-10-18T02:07:30.060Z,72.25
2022-10-18T02:11:32.315Z,72.47
2022-10-18T02:15:36.573Z,72.44
2022-10-18T02:19:43.561Z,72.09
2022-10-18T02:23:45.326Z,72.88
2022-10-18T02:27:44.582Z,73.18
2022-10-18T02:31:47.145Z,73.22
2022-10-18T02:35:54.047Z,73.32
2022-10-18T02:39:53.949Z,73.05
2022-10-18T02:43:53.803Z,73.44
2022-10-18T02:47:53.480Z,73.93
2022-10-18T02:51:54.875Z,74.16
2022-10-18T02:55:54.561Z,74.46
2022-10-18T02:59:53.849Z,74.88
2022-10-18T03:03:53.436Z,75.30
2022-10-18T03:07:54.887Z,74.76
2022-10-18T03:11:54.404Z,74.47
2022-10-18T03:15:53.962Z,73.32
2022-10-18T03:20:02.241Z,74.00
2022-10-18T03:24:04.167Z,74.01
2022-10-18T03:28:03.720Z,72.92
2022-10-18T03:32:03.281Z,71.70
2022-10-18T03:36:02.655Z,71.70
2022-10-18T03:40:04.382Z,71.98
2022-10-18T03:44:03.939Z,71.98
2022-10-18T03:48:03.649Z,72.42
2022-10-18T03:52:03.281Z,72.67
2022-10-18T03:56:05.516Z,72.99
2022-10-18T04:00:06.676Z,73.41
2022-10-18T04:04:11.058Z,74.07
2022-10-18T04:08:10.972Z,74.04
2022-10-18T04:12:13.042Z,74.22
2022-10-18T04:16:14.918Z,74.79
2022-10-18T04:20:14.786Z,74.91
2022-10-18T04:24:14.835Z,74.56
2022-10-18T04:28:18.873Z,74.70
2022-10-18T04:32:20.976Z,73.80
2022-10-18T04:36:22.583Z,74.29
2022-10-18T04:40:26.292Z,74.61
2022-10-18T04:44:29.327Z,74.30
2022-10-18T04:48:29.531Z,73.58
2022-10-18T04:52:33.438Z,73.71
2022-10-18T04:56:37.965Z,73.00
2022-10-18T05:00:40.586Z,72.50
2022-10-18T05:04:42.696Z,72.68
2022-10-18T05:08:44.128Z,73.64
2022-10-18T05:12:44.864Z,74.51
2022-10-18T05:16:47.305Z,75.10
2022-10-18T05:20:47.253Z,75.10
2022-10-18T05:24:50.381Z,76.22
2022-10-18T05:28:51.754Z,77.15
2022-10-18T05:32:59.640Z,77.67
2022-10-18T05:37:28.241Z,79.86
2022-10-18T05:41:33.067Z,79.68
2022-10-18T05:45:36.825Z,79.73
2022-10-18T05:50:05.136Z,79.67
2022-10-18T05:54:22.096Z,78.14
2022-10-18T05:58:27.233Z,76.55
2022-10-18T06:02:30.807Z,73.82
2022-10-18T06:06:45.113Z,70.50
2022-10-18T06:10:52.118Z,67.17
2022-10-18T06:15:05.473Z,64.04
2022-10-18T06:19:06.303Z,62.44
2022-10-18T06:23:09.701Z,61.49
2022-10-18T06:27:20.192Z,61.84
2022-10-18T06:31:24.106Z,60.32
2022-10-18T06:35:38.082Z,58.13
2022-10-18T06:39:53.993Z,57.15
2022-10-18T06:44:44.667Z,58.19
2022-10-18T06:50:12.074Z,59.21
2022-10-18T07:42:48.505Z,53.61
2022-10-18T07:59:46.946Z,55.70
2022-10-18T08:00:41.736Z,55.56
2022-10-18T08:10:45.757Z,55.21
2022-10-18T08:22:10.659Z,55.29
2022-10-18T08:27:18.307Z,54.46
2022-10-18T08:34:22.426Z,53.06
2022-10-18T08:48:50.345Z,49.67
2022-10-18T08:53:15.766Z,50.67
2022-10-18T08:57:18.066Z,50.72
2022-10-18T09:01:38.348Z,50.48
2022-10-18T09:06:04.226Z,51.17
2022-10-18T09:10:20.723Z,51.50
2022-10-18T09:15:07.938Z,50.81
2022-10-18T09:19:27.233Z,49.46
2022-10-18T09:23:40.265Z,48.38
2022-10-18T09:27:50.926Z,49.23
2022-10-18T09:31:58.127Z,49.62
2022-10-18T09:36:02.755Z,49.25
2022-10-18T09:40:09.024Z,49.39
2022-10-18T09:44:17.852Z,48.59
2022-10-18T09:48:24.179Z,48.87
2022-10-18T09:53:17.467Z,48.47
2022-10-18T09:57:54.809Z,47.84
2022-10-18T10:02:01.894Z,46.93
2022-10-18T10:06:40.318Z,47.31
2022-10-18T10:11:54.186Z,46.37
2022-10-18T10:16:18.185Z,46.54
2022-10-18T10:20:38.606Z,46.47
2022-10-18T10:25:03.437Z,45.96
2022-10-18T10:29:13.251Z,44.39
2022-10-18T10:45:03.590Z,44.18
2022-10-18T10:49:39.574Z,42.71
2022-10-18T10:54:12.922Z,43.12
2022-10-18T10:58:31.430Z,42.46
2022-10-18T11:03:10.829Z,41.55
2022-10-18T11:07:54.892Z,42.16
2022-10-18T11:12:06.212Z,40.97
2022-10-18T11:16:12.819Z,40.29
2022-10-18T11:20:33.978Z,39.91
2022-10-18T11:24:39.352Z,39.90
2022-10-18T11:29:26.820Z,38.58
2022-10-18T11:34:15.798Z,37.80
2022-10-18T11:38:40.671Z,37.64
2022-10-18T11:42:54.677Z,38.08
2022-10-18T11:47:09.688Z,37.72
2022-10-18T11:51:50.300Z,36.92
2022-10-18T11:56:19.423Z,38.27
2022-10-18T12:00:56.070Z,37.12
2022-10-18T12:09:35.255Z,37.89
2022-10-18T12:13:48.994Z,37.30
2022-10-18T12:17:57.285Z,38.29
2022-10-18T12:21:59.842Z,38.82
2022-10-18T12:26:05.399Z,38.27
2022-10-18T12:30:26.007Z,37.53
2022-10-18T12:39:43.335Z,36.23
2022-10-18T12:43:57.648Z,36.21
2022-10-18T12:48:04.745Z,34.52
2022-10-18T12:52:11.051Z,33.86
2022-10-18T12:56:42.971Z,33.80
2022-10-18T13:00:55.220Z,33.88
2022-10-18T13:04:56.749Z,33.47
2022-10-18T13:09:23.363Z,32.73
2022-10-18T13:13:55.945Z,33.61
2022-10-18T13:18:01.756Z,32.82
2022-10-18T13:22:21.243Z,32.17
2022-10-18T13:26:35.988Z,32.00
2022-10-18T13:30:51.270Z,32.69
2022-10-18T13:34:54.673Z,33.41
2022-10-18T13:39:10.204Z,32.33
2022-10-18T13:44:15.530Z,32.96
2022-10-18T13:48:51.928Z,32.56
2022-10-18T13:53:24.769Z,32.91
2022-10-18T13:57:43.727Z,32.06
2022-10-18T14:02:06.523Z,32.75
2022-10-18T14:06:11.633Z,32.25
2022-10-18T14:10:43.281Z,32.30
2022-10-18T14:14:57.875Z,32.76
2022-10-18T14:19:10.334Z,32.24
2022-10-18T14:23:16.465Z,32.17
2022-10-18T14:27:20.014Z,32.12
2022-10-18T14:31:22.122Z,32.37
2022-10-18T14:35:33.910Z,32.68
2022-10-18T14:39:33.713Z,33.60
2022-10-18T14:43:33.337Z,34.76
2022-10-18T14:47:36.003Z,35.21
2022-10-18T14:51:41.008Z,35.56
2022-10-18T14:55:42.695Z,36.28
2022-10-18T14:59:48.869Z,35.58
2022-10-18T15:03:49.337Z,36.37
2022-10-18T15:07:53.186Z,37.40
2022-10-18T15:11:54.514Z,38.18
2022-10-18T15:15:55.114Z,39.16
2022-10-18T15:20:03.288Z,39.24
2022-10-18T15:24:30.454Z,38.98
2022-10-18T15:28:32.181Z,40.07
2022-10-18T15:32:33.559Z,39.47
2022-10-18T15:36:34.997Z,40.04
2022-10-18T15:40:44.511Z,41.48
2022-10-18T15:44:50.667Z,42.10
2022-10-18T15:48:50.304Z,42.48
2022-10-18T15:52:49.931Z,42.58
2022-10-18T15:56:51.704Z,42.50
2022-10-18T16:00:52.634Z,43.35
2022-10-18T16:04:52.276Z,44.58
2022-10-18T16:08:53.392Z,45.46
2022-10-18T16:16:56.297Z,47.41
2022-10-18T16:20:56.225Z,48.41
2022-10-18T16:24:56.176Z,49.20
2022-10-18T16:28:58.989Z,49.62
2022-10-18T16:32:58.630Z,49.99
2022-10-18T16:36:57.730Z,50.32
2022-10-18T16:40:57.427Z,51.10
2022-10-18T16:44:59.121Z,52.24
2022-10-18T16:48:59.546Z,53.17
2022-10-18T16:52:59.001Z,53.58
2022-10-18T16:56:58.532Z,53.27
2022-10-18T17:01:02.909Z,52.59
2022-10-18T17:05:05.547Z,51.26
2022-10-18T17:09:05.521Z,51.98
2022-10-18T17:13:07.139Z,52.61
2022-10-18T17:17:11.926Z,52.99
2022-10-18T17:21:10.932Z,53.47
2022-10-18T17:25:10.860Z,53.52
2022-10-18T17:29:09.751Z,53.90
2022-10-18T17:33:11.982Z,54.53
2022-10-18T17:37:11.550Z,55.52
2022-10-18T17:41:12.690Z,56.08
2022-10-18T17:45:13.223Z,56.12
2022-10-18T17:49:16.391Z,56.13
2022-10-18T17:53:18.008Z,55.79
2022-10-18T17:57:17.917Z,55.56
2022-10-18T18:01:19.762Z,55.37
2022-10-18T18:05:21.521Z,55.07
2022-10-18T18:09:21.512Z,55.46
2022-10-18T18:13:21.128Z,56.15
2022-10-18T18:17:28.730Z,57.27
2022-10-18T18:21:36.322Z,58.93
2022-10-18T18:25:35.913Z,59.65
2022-10-18T18:29:34.894Z,60.39
2022-10-18T18:33:34.363Z,61.03
2022-10-18T18:37:35.595Z,61.94
2022-10-18T18:41:36.411Z,62.10
2022-10-18T18:45:35.878Z,62.16
2022-10-18T18:49:35.051Z,62.51
2022-10-18T18:53:38.035Z,63.84
2022-10-18T18:57:37.576Z,63.65
2022-10-18T19:01:38.329Z,63.73
2022-10-18T19:05:38.616Z,63.78
2022-10-18T19:09:41.956Z,63.37
2022-10-18T19:13:41.690Z,62.72
2022-10-18T19:17:41.272Z,61.04
2022-10-18T19:21:42.620Z,59.54
2022-10-18T19:25:44.376Z,58.86
2022-10-18T19:29:45.678Z,58.84
2022-10-18T19:33:48.330Z,58.46
2022-10-18T19:37:58.286Z,58.94
2022-10-18T19:42:02.931Z,59.33
2022-10-18T19:46:04.631Z,60.26
2022-10-18T19:50:04.237Z,60.26
2022-10-18T19:54:04.010Z,60.33
2022-10-18T19:58:05.766Z,59.91
2022-10-18T20:02:05.794Z,59.55
2022-10-18T20:06:05.829Z,58.94
2022-10-18T20:10:05.774Z,59.46
2022-10-18T20:14:09.241Z,60.76
2022-10-18T20:18:09.151Z,60.57
2022-10-18T20:22:08.715Z,60.04
2022-10-18T20:26:08.745Z,60.68
2022-10-18T20:30:11.803Z,61.18
2022-10-18T20:34:14.068Z,62.02
2022-10-18T20:38:13.788Z,63.94
2022-10-18T20:42:13.313Z,65.87
2022-10-18T20:46:14.823Z,65.72
2022-10-18T20:50:14.337Z,63.86
2022-10-18T20:54:14.226Z,63.35
2022-10-18T20:58:13.922Z,64.75
2022-10-18T21:02:15.840Z,64.89
2022-10-18T21:06:17.251Z,65.26
2022-10-18T21:10:16.757Z,65.56
2022-10-18T21:14:17.443Z,64.17
2022-10-18T21:18:18.774Z,64.29
2022-10-18T21:22:18.230Z,64.57
2022-10-18T21:26:18.937Z,64.00
2022-10-18T21:30:18.541Z,63.28
2022-10-18T21:34:20.214Z,64.42
2022-10-18T21:38:19.785Z,65.16
2022-10-18T21:42:19.044Z,65.66
2022-10-18T21:46:20.422Z,65.71
2022-10-18T21:50:22.058Z,67.02
2022-10-18T21:54:21.704Z,67.69
2022-10-18T21:58:21.710Z,67.61
2022-10-18T22:02:21.529Z,68.23
2022-10-18T22:06:24.739Z,68.65
2022-10-18T22:10:24.507Z,69.21
2022-10-18T22:14:24.269Z,71.00
2022-10-18T22:18:24.631Z,71.23
2022-10-18T22:22:26.609Z,70.65
2022-10-18T22:26:28.065Z,70.34
2022-10-18T22:30:27.821Z,70.23
2022-10-18T22:34:29.275Z,70.51
2022-10-18T22:38:34.933Z,70.38
2022-10-18T22:46:38.885Z,68.76
2022-10-18T22:50:38.138Z,67.58
2022-10-18T22:54:39.740Z,65.97
2022-10-18T22:58:40.600Z,65.15
2022-10-18T23:02:39.659Z,66.98
2022-10-18T23:06:38.858Z,67.90
2022-10-18T23:10:41.553Z,67.85
2022-10-18T23:14:40.555Z,67.16
2022-10-18T23:22:44.327Z,65.84
2022-10-18T23:26:45.705Z,66.12
2022-10-18T23:30:45.305Z,65.78
2022-10-18T23:34:44.489Z,65.73
2022-10-18T23:38:44.034Z,67.13
2022-10-18T23:42:45.713Z,67.54
2022-10-18T23:46:45.501Z,67.76
2022-10-18T23:50:45.367Z,66.88
2022-10-18T23:58:51.458Z,66.77
